sensor_id;sensor_type;location;lat;lon;timestamp;temperature;humidity
23120;DHT22;11729;50.836;4.330;2022-12-10T00:01:17;2.10;99.90
23120;DHT22;11729;50.836;4.330;2022-12-10T00:03:44;2.10;99.90
23120;DHT22;11729;50.836;4.330;2022-12-10T00:06:12;2.10;99.90
23120;DHT22;11729;50.836;4.330;2022-12-10T00:08:39;2.00;99.90
23120;DHT22;11729;50.836;4.330;2022-12-10T00:11:08;2.00;99.90
23120;DHT22;11729;50.836;4.330;2022-12-10T00:13:35;1.80;99.90
23120;DHT22;11729;50.836;4.330;2022-12-10T00:16:09;1.60;99.90
23120;DHT22;11729;50.836;4.330;2022-12-10T00:18:36;1.50;99.90
23120;DHT22;11729;50.836;4.330;2022-12-10T00:21:07;1.30;99.90
23120;DHT22;11729;50.836;4.330;2022-12-10T00:23:34;1.30;99.90
23120;DHT22;11729;50.836;4.330;2022-12-10T00:26:08;1.40;99.90
23120;DHT22;11729;50.836;4.330;2022-12-10T00:28:34;1.40;99.90
23120;DHT22;11729;50.836;4.330;2022-12-10T00:31:11;1.40;99.90
23120;DHT22;11729;50.836;4.330;2022-12-10T00:33:37;1.40;99.90
23120;DHT22;11729;50.836;4.330;2022-12-10T00:36:11;1.30;99.90
23120;DHT22;11729;50.836;4.330;2022-12-10T00:38:38;1.40;99.90
23120;DHT22;11729;50.836;4.330;2022-12-10T00:41:04;1.50;99.90
23120;DHT22;11729;50.836;4.330;2022-12-10T00:43:31;1.40;99.90
23120;DHT22;11729;50.836;4.330;2022-12-10T00:45:56;1.40;99.90
23120;DHT22;11729;50.836;4.330;2022-12-10T00:48:22;1.40;99.90
23120;DHT22;11729;50.836;4.330;2022-12-10T00:51:03;1.50;99.90
23120;DHT22;11729;50.836;4.330;2022-12-10T00:53:30;1.50;99.90
23120;DHT22;11729;50.836;4.330;2022-12-10T00:55:56;1.60;99.90
23120;DHT22;11729;50.836;4.330;2022-12-10T00:58:23;1.60;99.90
23120;DHT22;11729;50.836;4.330;2022-12-10T01:00:49;1.70;99.90
23120;DHT22;11729;50.836;4.330;2022-12-10T01:03:15;1.60;99.90
23120;DHT22;11729;50.836;4.330;2022-12-10T01:05:41;1.70;99.90
23120;DHT22;11729;50.836;4.330;2022-12-10T01:08:08;1.60;99.90
23120;DHT22;11729;50.836;4.330;2022-12-10T01:10:34;1.60;99.90
23120;DHT22;11729;50.836;4.330;2022-12-10T01:13:03;1.70;99.90
23120;DHT22;11729;50.836;4.330;2022-12-10T01:15:29;1.80;99.90
23120;DHT22;11729;50.836;4.330;2022-12-10T01:17:54;2.00;99.90
23120;DHT22;11729;50.836;4.330;2022-12-10T01:20:20;2.00;99.90
23120;DHT22;11729;50.836;4.330;2022-12-10T01:22:45;1.90;99.90
23120;DHT22;11729;50.836;4.330;2022-12-10T01:25:12;2.00;99.90
23120;DHT22;11729;50.836;4.330;2022-12-10T01:27:37;1.80;99.90
23120;DHT22;11729;50.836;4.330;2022-12-10T01:30:04;1.70;99.90
23120;DHT22;11729;50.836;4.330;2022-12-10T01:32:30;1.70;99.90
23120;DHT22;11729;50.836;4.330;2022-12-10T01:34:56;1.90;99.90
23120;DHT22;11729;50.836;4.330;2022-12-10T01:37:21;1.90;99.90
23120;DHT22;11729;50.836;4.330;2022-12-10T01:39:47;2.00;99.90
23120;DHT22;11729;50.836;4.330;2022-12-10T01:42:13;1.80;99.90
23120;DHT22;11729;50.836;4.330;2022-12-10T01:47:08;1.90;99.90
23120;DHT22;11729;50.836;4.330;2022-12-10T01:49:37;1.90;99.90
23120;DHT22;11729;50.836;4.330;2022-12-10T01:52:05;1.90;99.90
23120;DHT22;11729;50.836;4.330;2022-12-10T01:54:34;1.90;99.90
23120;DHT22;11729;50.836;4.330;2022-12-10T01:57:23;1.90;99.90
23120;DHT22;11729;50.836;4.330;2022-12-10T01:59:51;1.80;99.90
23120;DHT22;11729;50.836;4.330;2022-12-10T02:02:34;1.70;99.90
23120;DHT22;11729;50.836;4.330;2022-12-10T02:05:17;1.70;99.90
23120;DHT22;11729;50.836;4.330;2022-12-10T02:13:39;1.60;99.90
23120;DHT22;11729;50.836;4.330;2022-12-10T02:16:16;1.70;99.90
23120;DHT22;11729;50.836;4.330;2022-12-10T02:19:09;1.80;99.90
23120;DHT22;11729;50.836;4.330;2022-12-10T02:21:40;1.80;99.90
23120;DHT22;11729;50.836;4.330;2022-12-10T02:24:11;1.70;99.90
23120;DHT22;11729;50.836;4.330;2022-12-10T02:27:00;1.60;99.90
23120;DHT22;11729;50.836;4.330;2022-12-10T02:29:30;1.80;99.90
23120;DHT22;11729;50.836;4.330;2022-12-10T02:32:07;1.90;99.90
23120;DHT22;11729;50.836;4.330;2022-12-10T02:34:38;1.90;99.90
23120;DHT22;11729;50.836;4.330;2022-12-10T02:37:10;1.90;99.90
23120;DHT22;11729;50.836;4.330;2022-12-10T02:39:40;1.80;99.90
23120;DHT22;11729;50.836;4.330;2022-12-10T02:42:08;1.50;99.90
23120;DHT22;11729;50.836;4.330;2022-12-10T02:44:37;1.50;99.90
23120;DHT22;11729;50.836;4.330;2022-12-10T02:47:05;1.50;99.90
23120;DHT22;11729;50.836;4.330;2022-12-10T02:49:32;1.60;99.90
23120;DHT22;11729;50.836;4.330;2022-12-10T02:51:59;1.80;99.90
23120;DHT22;11729;50.836;4.330;2022-12-10T02:54:45;1.80;99.90
23120;DHT22;11729;50.836;4.330;2022-12-10T03:00:11;1.60;99.90
23120;DHT22;11729;50.836;4.330;2022-12-10T03:05:50;1.60;99.90
23120;DHT22;11729;50.836;4.330;2022-12-10T03:08:26;1.50;99.90
23120;DHT22;11729;50.836;4.330;2022-12-10T03:14:00;1.50;99.90
23120;DHT22;11729;50.836;4.330;2022-12-10T03:16:34;1.60;99.90
23120;DHT22;11729;50.836;4.330;2022-12-10T03:19:04;1.50;99.90
23120;DHT22;11729;50.836;4.330;2022-12-10T03:21:34;1.40;99.90
23120;DHT22;11729;50.836;4.330;2022-12-10T03:24:03;1.50;99.90
23120;DHT22;11729;50.836;4.330;2022-12-10T03:26:29;1.50;99.90
23120;DHT22;11729;50.836;4.330;2022-12-10T03:29:06;1.50;99.90
23120;DHT22;11729;50.836;4.330;2022-12-10T03:31:34;1.60;99.90
23120;DHT22;11729;50.836;4.330;2022-12-10T03:34:01;1.50;99.90
23120;DHT22;11729;50.836;4.330;2022-12-10T03:36:27;1.40;99.90
23120;DHT22;11729;50.836;4.330;2022-12-10T03:38:54;1.40;99.90
23120;DHT22;11729;50.836;4.330;2022-12-10T03:41:20;1.30;99.90
23120;DHT22;11729;50.836;4.330;2022-12-10T03:43:55;1.30;99.90
23120;DHT22;11729;50.836;4.330;2022-12-10T03:46:25;1.30;99.90
23120;DHT22;11729;50.836;4.330;2022-12-10T03:48:52;1.40;99.90
23120;DHT22;11729;50.836;4.330;2022-12-10T03:51:18;1.50;99.90
23120;DHT22;11729;50.836;4.330;2022-12-10T03:53:44;1.40;99.90
23120;DHT22;11729;50.836;4.330;2022-12-10T03:56:09;1.20;99.90
23120;DHT22;11729;50.836;4.330;2022-12-10T03:58:35;1.20;99.90
23120;DHT22;11729;50.836;4.330;2022-12-10T04:01:02;1.30;99.90
23120;DHT22;11729;50.836;4.330;2022-12-10T04:03:27;1.40;99.90
23120;DHT22;11729;50.836;4.330;2022-12-10T04:05:53;1.50;99.90
23120;DHT22;11729;50.836;4.330;2022-12-10T04:08:19;1.40;99.90
23120;DHT22;11729;50.836;4.330;2022-12-10T04:10:44;1.40;99.90
23120;DHT22;11729;50.836;4.330;2022-12-10T04:13:10;1.40;99.90
23120;DHT22;11729;50.836;4.330;2022-12-10T04:15:56;1.30;99.90
23120;DHT22;11729;50.836;4.330;2022-12-10T04:18:40;1.30;99.90
23120;DHT22;11729;50.836;4.330;2022-12-10T04:21:06;1.30;99.90
23120;DHT22;11729;50.836;4.330;2022-12-10T04:23:50;1.30;99.90
23120;DHT22;11729;50.836;4.330;2022-12-10T04:26:34;1.30;99.90
23120;DHT22;11729;50.836;4.330;2022-12-10T04:29:23;1.40;99.90
23120;DHT22;11729;50.836;4.330;2022-12-10T04:31:49;1.40;99.90
23120;DHT22;11729;50.836;4.330;2022-12-10T04:34:16;1.40;99.90
23120;DHT22;11729;50.836;4.330;2022-12-10T04:36:42;1.30;99.90
23120;DHT22;11729;50.836;4.330;2022-12-10T04:39:08;1.40;99.90
23120;DHT22;11729;50.836;4.330;2022-12-10T04:41:33;1.40;99.90
23120;DHT22;11729;50.836;4.330;2022-12-10T04:43:59;1.60;99.90
23120;DHT22;11729;50.836;4.330;2022-12-10T04:46:24;1.50;99.90
23120;DHT22;11729;50.836;4.330;2022-12-10T04:48:51;1.40;99.90
23120;DHT22;11729;50.836;4.330;2022-12-10T04:51:17;1.10;99.90
23120;DHT22;11729;50.836;4.330;2022-12-10T04:53:44;1.30;99.90
23120;DHT22;11729;50.836;4.330;2022-12-10T04:56:10;1.50;99.90
23120;DHT22;11729;50.836;4.330;2022-12-10T04:58:35;1.50;99.90
23120;DHT22;11729;50.836;4.330;2022-12-10T05:01:07;1.50;99.90
23120;DHT22;11729;50.836;4.330;2022-12-10T05:03:34;1.40;99.90
23120;DHT22;11729;50.836;4.330;2022-12-10T05:06:05;1.40;99.90
23120;DHT22;11729;50.836;4.330;2022-12-10T05:08:31;1.50;99.90
23120;DHT22;11729;50.836;4.330;2022-12-10T05:11:01;1.50;99.90
23120;DHT22;11729;50.836;4.330;2022-12-10T05:13:27;1.30;99.90
23120;DHT22;11729;50.836;4.330;2022-12-10T05:15:53;1.20;99.90
23120;DHT22;11729;50.836;4.330;2022-12-10T05:18:18;1.30;99.90
23120;DHT22;11729;50.836;4.330;2022-12-10T05:20:44;1.40;99.90
23120;DHT22;11729;50.836;4.330;2022-12-10T05:23:09;1.40;99.90
23120;DHT22;11729;50.836;4.330;2022-12-10T05:26:10;1.50;99.90
23120;DHT22;11729;50.836;4.330;2022-12-10T05:28:41;1.50;99.90
23120;DHT22;11729;50.836;4.330;2022-12-10T05:33:40;1.40;99.90
23120;DHT22;11729;50.836;4.330;2022-12-10T05:36:06;1.30;99.90
23120;DHT22;11729;50.836;4.330;2022-12-10T05:38:33;1.30;99.90
23120;DHT22;11729;50.836;4.330;2022-12-10T05:41:04;1.20;99.90
23120;DHT22;11729;50.836;4.330;2022-12-10T05:43:30;1.20;99.90
23120;DHT22;11729;50.836;4.330;2022-12-10T05:46:03;1.10;99.90
23120;DHT22;11729;50.836;4.330;2022-12-10T05:48:29;1.10;99.90
23120;DHT22;11729;50.836;4.330;2022-12-10T05:50:55;1.20;99.90
23120;DHT22;11729;50.836;4.330;2022-12-10T05:53:21;1.30;99.90
23120;DHT22;11729;50.836;4.330;2022-12-10T05:55:46;1.20;99.90
23120;DHT22;11729;50.836;4.330;2022-12-10T05:58:13;1.30;99.90
23120;DHT22;11729;50.836;4.330;2022-12-10T06:00:41;1.10;99.90
23120;DHT22;11729;50.836;4.330;2022-12-10T06:03:07;1.10;99.90
23120;DHT22;11729;50.836;4.330;2022-12-10T06:05:40;1.10;99.90
23120;DHT22;11729;50.836;4.330;2022-12-10T06:08:06;0.90;99.90
23120;DHT22;11729;50.836;4.330;2022-12-10T06:10:34;0.90;99.90
23120;DHT22;11729;50.836;4.330;2022-12-10T06:13:02;1.00;99.90
23120;DHT22;11729;50.836;4.330;2022-12-10T06:15:28;1.10;99.90
23120;DHT22;11729;50.836;4.330;2022-12-10T06:17:55;1.20;99.90
23120;DHT22;11729;50.836;4.330;2022-12-10T06:20:21;1.40;99.90
23120;DHT22;11729;50.836;4.330;2022-12-10T06:22:47;1.10;99.90
23120;DHT22;11729;50.836;4.330;2022-12-10T06:25:12;1.30;99.90
23120;DHT22;11729;50.836;4.330;2022-12-10T06:27:38;1.40;99.90
23120;DHT22;11729;50.836;4.330;2022-12-10T06:30:04;1.40;99.90
23120;DHT22;11729;50.836;4.330;2022-12-10T06:32:31;1.30;99.90
23120;DHT22;11729;50.836;4.330;2022-12-10T06:34:58;1.30;99.90
23120;DHT22;11729;50.836;4.330;2022-12-10T06:37:23;1.30;99.90
23120;DHT22;11729;50.836;4.330;2022-12-10T06:39:52;1.20;99.90
23120;DHT22;11729;50.836;4.330;2022-12-10T06:42:20;1.20;99.90
23120;DHT22;11729;50.836;4.330;2022-12-10T06:44:46;1.30;99.90
23120;DHT22;11729;50.836;4.330;2022-12-10T06:47:12;1.30;99.90
23120;DHT22;11729;50.836;4.330;2022-12-10T06:49:38;1.20;99.90
23120;DHT22;11729;50.836;4.330;2022-12-10T06:52:04;1.30;99.90
23120;DHT22;11729;50.836;4.330;2022-12-10T06:54:30;1.20;99.90
23120;DHT22;11729;50.836;4.330;2022-12-10T06:56:56;1.10;99.90
23120;DHT22;11729;50.836;4.330;2022-12-10T06:59:22;1.10;99.90
23120;DHT22;11729;50.836;4.330;2022-12-10T07:01:48;1.10;99.90
23120;DHT22;11729;50.836;4.330;2022-12-10T07:04:14;1.00;99.90
23120;DHT22;11729;50.836;4.330;2022-12-10T07:06:40;1.10;99.90
23120;DHT22;11729;50.836;4.330;2022-12-10T07:09:06;1.00;99.90
23120;DHT22;11729;50.836;4.330;2022-12-10T07:11:31;1.10;99.90
23120;DHT22;11729;50.836;4.330;2022-12-10T07:13:58;1.10;99.90
23120;DHT22;11729;50.836;4.330;2022-12-10T07:16:26;1.20;99.90
23120;DHT22;11729;50.836;4.330;2022-12-10T07:18:53;1.20;99.90
23120;DHT22;11729;50.836;4.330;2022-12-10T07:23:46;1.20;99.90
23120;DHT22;11729;50.836;4.330;2022-12-10T07:26:11;1.20;99.90
23120;DHT22;11729;50.836;4.330;2022-12-10T07:28:37;1.10;99.90
23120;DHT22;11729;50.836;4.330;2022-12-10T07:31:04;1.10;99.90
23120;DHT22;11729;50.836;4.330;2022-12-10T07:33:30;1.00;99.90
23120;DHT22;11729;50.836;4.330;2022-12-10T07:35:56;1.00;99.90
23120;DHT22;11729;50.836;4.330;2022-12-10T07:38:23;0.90;99.90
23120;DHT22;11729;50.836;4.330;2022-12-10T07:40:49;0.80;99.90
23120;DHT22;11729;50.836;4.330;2022-12-10T07:43:15;0.90;99.90
23120;DHT22;11729;50.836;4.330;2022-12-10T07:45:42;0.90;99.90
23120;DHT22;11729;50.836;4.330;2022-12-10T07:48:08;1.00;99.90
23120;DHT22;11729;50.836;4.330;2022-12-10T07:50:33;1.00;99.90
23120;DHT22;11729;50.836;4.330;2022-12-10T07:52:59;0.80;99.90
23120;DHT22;11729;50.836;4.330;2022-12-10T07:55:26;0.80;99.90
23120;DHT22;11729;50.836;4.330;2022-12-10T07:57:51;0.90;99.90
23120;DHT22;11729;50.836;4.330;2022-12-10T08:00:17;1.00;99.90
23120;DHT22;11729;50.836;4.330;2022-12-10T08:02:43;1.20;99.90
23120;DHT22;11729;50.836;4.330;2022-12-10T08:05:09;1.20;99.90
23120;DHT22;11729;50.836;4.330;2022-12-10T08:07:35;1.10;99.90
23120;DHT22;11729;50.836;4.330;2022-12-10T08:10:00;1.10;99.90
23120;DHT22;11729;50.836;4.330;2022-12-10T08:12:27;1.20;99.90
23120;DHT22;11729;50.836;4.330;2022-12-10T08:14:53;1.20;99.90
23120;DHT22;11729;50.836;4.330;2022-12-10T08:17:18;1.30;99.90
23120;DHT22;11729;50.836;4.330;2022-12-10T08:19:44;1.30;99.90
23120;DHT22;11729;50.836;4.330;2022-12-10T08:22:09;1.30;99.90
23120;DHT22;11729;50.836;4.330;2022-12-10T08:24:35;1.10;99.90
23120;DHT22;11729;50.836;4.330;2022-12-10T08:27:02;1.10;99.90
23120;DHT22;11729;50.836;4.330;2022-12-10T08:29:27;1.10;99.90
23120;DHT22;11729;50.836;4.330;2022-12-10T08:31:53;1.10;99.90
23120;DHT22;11729;50.836;4.330;2022-12-10T08:34:18;1.00;99.90
23120;DHT22;11729;50.836;4.330;2022-12-10T08:36:45;0.90;99.90
23120;DHT22;11729;50.836;4.330;2022-12-10T08:39:12;0.80;99.90
23120;DHT22;11729;50.836;4.330;2022-12-10T08:41:44;0.90;99.90
23120;DHT22;11729;50.836;4.330;2022-12-10T08:44:10;0.80;99.90
23120;DHT22;11729;50.836;4.330;2022-12-10T08:46:36;0.90;99.90
23120;DHT22;11729;50.836;4.330;2022-12-10T08:49:01;0.90;99.90
23120;DHT22;11729;50.836;4.330;2022-12-10T08:51:28;1.00;99.90
23120;DHT22;11729;50.836;4.330;2022-12-10T08:53:54;1.20;99.90
23120;DHT22;11729;50.836;4.330;2022-12-10T08:56:20;1.20;99.90
23120;DHT22;11729;50.836;4.330;2022-12-10T08:58:46;1.20;99.90
23120;DHT22;11729;50.836;4.330;2022-12-10T09:01:14;1.10;99.90
23120;DHT22;11729;50.836;4.330;2022-12-10T09:03:40;1.10;99.90
23120;DHT22;11729;50.836;4.330;2022-12-10T09:06:10;1.10;99.90
23120;DHT22;11729;50.836;4.330;2022-12-10T09:08:36;1.30;99.90
23120;DHT22;11729;50.836;4.330;2022-12-10T09:11:10;1.30;99.90
23120;DHT22;11729;50.836;4.330;2022-12-10T09:13:37;1.30;99.90
23120;DHT22;11729;50.836;4.330;2022-12-10T09:16:04;1.20;99.90
23120;DHT22;11729;50.836;4.330;2022-12-10T09:18:30;1.20;99.90
23120;DHT22;11729;50.836;4.330;2022-12-10T09:20:56;1.30;99.90
23120;DHT22;11729;50.836;4.330;2022-12-10T09:23:22;1.50;99.90
23120;DHT22;11729;50.836;4.330;2022-12-10T09:25:47;1.50;99.90
23120;DHT22;11729;50.836;4.330;2022-12-10T09:28:13;1.50;99.90
23120;DHT22;11729;50.836;4.330;2022-12-10T09:30:40;1.60;99.90
23120;DHT22;11729;50.836;4.330;2022-12-10T09:33:05;1.50;99.90
23120;DHT22;11729;50.836;4.330;2022-12-10T09:35:31;1.50;99.90
23120;DHT22;11729;50.836;4.330;2022-12-10T09:37:57;1.60;99.90
23120;DHT22;11729;50.836;4.330;2022-12-10T09:40:32;1.50;99.90
23120;DHT22;11729;50.836;4.330;2022-12-10T09:43:39;1.40;99.90
23120;DHT22;11729;50.836;4.330;2022-12-10T09:46:10;1.50;99.90
23120;DHT22;11729;50.836;4.330;2022-12-10T09:51:23;1.40;99.90
23120;DHT22;11729;50.836;4.330;2022-12-10T09:53:54;1.40;99.90
23120;DHT22;11729;50.836;4.330;2022-12-10T09:56:30;1.50;99.90
23120;DHT22;11729;50.836;4.330;2022-12-10T09:58:57;1.60;99.90
23120;DHT22;11729;50.836;4.330;2022-12-10T10:01:27;1.60;99.90
23120;DHT22;11729;50.836;4.330;2022-12-10T10:03:55;1.60;99.90
23120;DHT22;11729;50.836;4.330;2022-12-10T10:06:21;1.70;99.90
23120;DHT22;11729;50.836;4.330;2022-12-10T10:08:52;1.80;99.90
23120;DHT22;11729;50.836;4.330;2022-12-10T10:11:31;1.80;99.90
23120;DHT22;11729;50.836;4.330;2022-12-10T10:14:05;1.70;99.90
23120;DHT22;11729;50.836;4.330;2022-12-10T10:16:49;1.70;99.90
23120;DHT22;11729;50.836;4.330;2022-12-10T10:19:29;1.80;99.90
23120;DHT22;11729;50.836;4.330;2022-12-10T10:21:56;1.70;99.90
23120;DHT22;11729;50.836;4.330;2022-12-10T10:24:28;1.70;99.90
23120;DHT22;11729;50.836;4.330;2022-12-10T10:27:10;1.70;99.90
23120;DHT22;11729;50.836;4.330;2022-12-10T10:29:37;1.80;99.90
23120;DHT22;11729;50.836;4.330;2022-12-10T10:32:12;2.10;99.90
23120;DHT22;11729;50.836;4.330;2022-12-10T10:34:39;2.00;99.90
23120;DHT22;11729;50.836;4.330;2022-12-10T10:37:05;2.10;99.90
23120;DHT22;11729;50.836;4.330;2022-12-10T10:39:32;2.00;99.90
23120;DHT22;11729;50.836;4.330;2022-12-10T10:42:06;2.00;99.90
23120;DHT22;11729;50.836;4.330;2022-12-10T10:44:37;2.00;99.90
23120;DHT22;11729;50.836;4.330;2022-12-10T10:47:30;2.00;99.90
23120;DHT22;11729;50.836;4.330;2022-12-10T10:49:56;2.20;99.90
23120;DHT22;11729;50.836;4.330;2022-12-10T10:52:22;2.10;99.90
23120;DHT22;11729;50.836;4.330;2022-12-10T10:54:52;2.10;99.90
23120;DHT22;11729;50.836;4.330;2022-12-10T10:57:25;2.00;99.90
23120;DHT22;11729;50.836;4.330;2022-12-10T10:59:55;2.00;99.90
23120;DHT22;11729;50.836;4.330;2022-12-10T11:02:32;2.00;99.90
23120;DHT22;11729;50.836;4.330;2022-12-10T11:07:35;2.10;99.90
23120;DHT22;11729;50.836;4.330;2022-12-10T11:10:03;2.00;99.90
23120;DHT22;11729;50.836;4.330;2022-12-10T11:12:39;1.90;99.90
23120;DHT22;11729;50.836;4.330;2022-12-10T11:17:54;2.10;99.90
23120;DHT22;11729;50.836;4.330;2022-12-10T11:22:58;2.30;99.90
23120;DHT22;11729;50.836;4.330;2022-12-10T11:31:20;2.40;99.90
23120;DHT22;11729;50.836;4.330;2022-12-10T11:41:58;2.30;99.90
23120;DHT22;11729;50.836;4.330;2022-12-10T11:44:47;2.30;99.90
23120;DHT22;11729;50.836;4.330;2022-12-10T11:47:38;2.50;99.90
23120;DHT22;11729;50.836;4.330;2022-12-10T11:50:36;2.80;99.90
23120;DHT22;11729;50.836;4.330;2022-12-10T11:53:13;2.80;99.90
23120;DHT22;11729;50.836;4.330;2022-12-10T12:01:45;2.70;99.90
23120;DHT22;11729;50.836;4.330;2022-12-10T12:17:42;2.70;99.90
23120;DHT22;11729;50.836;4.330;2022-12-10T12:22:54;2.80;99.90
23120;DHT22;11729;50.836;4.330;2022-12-10T12:25:33;2.80;99.90
23120;DHT22;11729;50.836;4.330;2022-12-10T12:31:06;2.80;99.90
23120;DHT22;11729;50.836;4.330;2022-12-10T12:33:42;2.80;99.90
23120;DHT22;11729;50.836;4.330;2022-12-10T12:36:15;2.80;99.90
23120;DHT22;11729;50.836;4.330;2022-12-10T12:41:42;2.60;99.90
23120;DHT22;11729;50.836;4.330;2022-12-10T12:44:29;2.70;99.90
23120;DHT22;11729;50.836;4.330;2022-12-10T12:47:50;2.80;99.90
23120;DHT22;11729;50.836;4.330;2022-12-10T12:49:49;2.80;99.90
23120;DHT22;11729;50.836;4.330;2022-12-10T12:58:39;2.70;99.90
23120;DHT22;11729;50.836;4.330;2022-12-10T13:04:01;3.00;99.90
23120;DHT22;11729;50.836;4.330;2022-12-10T13:06:34;3.00;99.90
23120;DHT22;11729;50.836;4.330;2022-12-10T13:19:33;3.30;99.90
23120;DHT22;11729;50.836;4.330;2022-12-10T13:22:39;3.40;99.90
23120;DHT22;11729;50.836;4.330;2022-12-10T13:25:05;3.30;99.90
23120;DHT22;11729;50.836;4.330;2022-12-10T13:27:33;3.20;99.90
23120;DHT22;11729;50.836;4.330;2022-12-10T13:43:35;3.40;99.90
23120;DHT22;11729;50.836;4.330;2022-12-10T13:46:28;3.30;99.90
23120;DHT22;11729;50.836;4.330;2022-12-10T13:48:57;3.30;99.90
23120;DHT22;11729;50.836;4.330;2022-12-10T13:57:21;3.30;99.90
23120;DHT22;11729;50.836;4.330;2022-12-10T14:07:34;3.20;99.90
23120;DHT22;11729;50.836;4.330;2022-12-10T14:10:01;3.20;99.90
23120;DHT22;11729;50.836;4.330;2022-12-10T14:12:28;3.30;99.90
23120;DHT22;11729;50.836;4.330;2022-12-10T14:14:56;3.30;99.90
23120;DHT22;11729;50.836;4.330;2022-12-10T14:17:28;3.50;99.90
23120;DHT22;11729;50.836;4.330;2022-12-10T14:19:56;3.50;99.90
23120;DHT22;11729;50.836;4.330;2022-12-10T14:22:38;3.70;99.90
23120;DHT22;11729;50.836;4.330;2022-12-10T14:25:11;3.50;99.90
23120;DHT22;11729;50.836;4.330;2022-12-10T14:27:37;3.50;99.90
23120;DHT22;11729;50.836;4.330;2022-12-10T14:30:19;3.60;99.90
23120;DHT22;11729;50.836;4.330;2022-12-10T14:32:46;3.40;99.90
23120;DHT22;11729;50.836;4.330;2022-12-10T14:35:24;3.20;99.90
23120;DHT22;11729;50.836;4.330;2022-12-10T14:37:50;3.20;99.90
23120;DHT22;11729;50.836;4.330;2022-12-10T14:40:27;3.30;99.90
23120;DHT22;11729;50.836;4.330;2022-12-10T14:43:17;3.30;99.90
23120;DHT22;11729;50.836;4.330;2022-12-10T14:45:49;3.20;99.90
23120;DHT22;11729;50.836;4.330;2022-12-10T14:48:17;3.30;99.90
23120;DHT22;11729;50.836;4.330;2022-12-10T14:50:44;3.30;99.90
23120;DHT22;11729;50.836;4.330;2022-12-10T14:53:16;3.30;99.90
23120;DHT22;11729;50.836;4.330;2022-12-10T14:55:43;3.20;99.90
23120;DHT22;11729;50.836;4.330;2022-12-10T14:58:20;3.20;99.90
23120;DHT22;11729;50.836;4.330;2022-12-10T15:00:48;3.20;99.90
23120;DHT22;11729;50.836;4.330;2022-12-10T15:03:27;3.20;99.90
23120;DHT22;11729;50.836;4.330;2022-12-10T15:05:59;3.20;99.90
23120;DHT22;11729;50.836;4.330;2022-12-10T15:08:27;3.10;99.90
23120;DHT22;11729;50.836;4.330;2022-12-10T15:10:58;3.20;99.90
23120;DHT22;11729;50.836;4.330;2022-12-10T15:15:53;3.00;99.90
23120;DHT22;11729;50.836;4.330;2022-12-10T15:18:30;3.20;99.90
23120;DHT22;11729;50.836;4.330;2022-12-10T15:21:14;3.20;99.90
23120;DHT22;11729;50.836;4.330;2022-12-10T15:23:43;3.10;99.90
23120;DHT22;11729;50.836;4.330;2022-12-10T15:26:21;3.20;99.90
23120;DHT22;11729;50.836;4.330;2022-12-10T15:28:49;3.20;99.90
23120;DHT22;11729;50.836;4.330;2022-12-10T15:33:58;3.30;99.90
23120;DHT22;11729;50.836;4.330;2022-12-10T15:38:55;3.40;99.90
23120;DHT22;11729;50.836;4.330;2022-12-10T15:47:19;3.20;99.90
23120;DHT22;11729;50.836;4.330;2022-12-10T15:49:49;3.20;99.90
23120;DHT22;11729;50.836;4.330;2022-12-10T15:52:29;3.20;99.90
23120;DHT22;11729;50.836;4.330;2022-12-10T15:54:56;3.20;99.90
23120;DHT22;11729;50.836;4.330;2022-12-10T15:57:24;3.20;99.90
23120;DHT22;11729;50.836;4.330;2022-12-10T15:59:52;3.10;99.90
23120;DHT22;11729;50.836;4.330;2022-12-10T16:05:15;3.20;99.90
23120;DHT22;11729;50.836;4.330;2022-12-10T16:07:42;3.10;99.90
23120;DHT22;11729;50.836;4.330;2022-12-10T16:10:10;3.10;99.90
23120;DHT22;11729;50.836;4.330;2022-12-10T16:12:37;3.10;99.90
23120;DHT22;11729;50.836;4.330;2022-12-10T16:15:04;3.00;99.90
23120;DHT22;11729;50.836;4.330;2022-12-10T16:17:31;3.00;99.90
23120;DHT22;11729;50.836;4.330;2022-12-10T16:19:59;3.00;99.90
23120;DHT22;11729;50.836;4.330;2022-12-10T16:22:27;3.20;99.90
23120;DHT22;11729;50.836;4.330;2022-12-10T16:24:52;3.10;99.90
23120;DHT22;11729;50.836;4.330;2022-12-10T16:27:18;3.10;99.90
23120;DHT22;11729;50.836;4.330;2022-12-10T16:29:44;3.30;99.90
23120;DHT22;11729;50.836;4.330;2022-12-10T16:32:10;3.20;99.90
23120;DHT22;11729;50.836;4.330;2022-12-10T16:34:37;3.10;99.90
23120;DHT22;11729;50.836;4.330;2022-12-10T16:37:03;3.00;99.90
23120;DHT22;11729;50.836;4.330;2022-12-10T16:39:28;2.90;99.90
23120;DHT22;11729;50.836;4.330;2022-12-10T16:41:54;2.90;99.90
23120;DHT22;11729;50.836;4.330;2022-12-10T16:44:20;3.10;99.90
23120;DHT22;11729;50.836;4.330;2022-12-10T16:46:46;3.00;99.90
23120;DHT22;11729;50.836;4.330;2022-12-10T16:49:12;3.00;99.90
23120;DHT22;11729;50.836;4.330;2022-12-10T16:51:38;3.10;99.90
23120;DHT22;11729;50.836;4.330;2022-12-10T16:54:04;3.20;99.90
23120;DHT22;11729;50.836;4.330;2022-12-10T16:56:30;3.20;99.90
23120;DHT22;11729;50.836;4.330;2022-12-10T16:58:56;3.10;99.90
23120;DHT22;11729;50.836;4.330;2022-12-10T17:01:27;3.10;99.90
23120;DHT22;11729;50.836;4.330;2022-12-10T17:03:55;3.10;99.90
23120;DHT22;11729;50.836;4.330;2022-12-10T17:06:21;3.20;99.90
23120;DHT22;11729;50.836;4.330;2022-12-10T17:08:48;3.00;99.90
23120;DHT22;11729;50.836;4.330;2022-12-10T17:14:05;3.10;99.90
23120;DHT22;11729;50.836;4.330;2022-12-10T17:16:31;3.10;99.90
23120;DHT22;11729;50.836;4.330;2022-12-10T17:18:58;3.10;99.90
23120;DHT22;11729;50.836;4.330;2022-12-10T17:21:24;3.20;99.90
23120;DHT22;11729;50.836;4.330;2022-12-10T17:23:50;3.30;99.90
23120;DHT22;11729;50.836;4.330;2022-12-10T17:26:29;3.30;99.90
23120;DHT22;11729;50.836;4.330;2022-12-10T17:29:01;3.30;99.90
23120;DHT22;11729;50.836;4.330;2022-12-10T17:31:28;3.30;99.90
23120;DHT22;11729;50.836;4.330;2022-12-10T17:33:54;3.30;99.90
23120;DHT22;11729;50.836;4.330;2022-12-10T17:36:21;3.30;99.90
23120;DHT22;11729;50.836;4.330;2022-12-10T17:38:47;3.30;99.90
23120;DHT22;11729;50.836;4.330;2022-12-10T17:41:13;3.30;99.90
23120;DHT22;11729;50.836;4.330;2022-12-10T17:43:41;3.40;99.90
23120;DHT22;11729;50.836;4.330;2022-12-10T17:46:10;3.40;99.90
23120;DHT22;11729;50.836;4.330;2022-12-10T17:48:36;3.40;99.90
23120;DHT22;11729;50.836;4.330;2022-12-10T17:51:02;3.50;99.90
23120;DHT22;11729;50.836;4.330;2022-12-10T17:53:28;3.50;99.90
23120;DHT22;11729;50.836;4.330;2022-12-10T17:56:00;3.40;99.90
23120;DHT22;11729;50.836;4.330;2022-12-10T17:58:28;3.40;99.90
23120;DHT22;11729;50.836;4.330;2022-12-10T18:00:54;3.40;99.90
23120;DHT22;11729;50.836;4.330;2022-12-10T18:03:20;3.40;99.90
23120;DHT22;11729;50.836;4.330;2022-12-10T18:05:46;3.40;99.90
23120;DHT22;11729;50.836;4.330;2022-12-10T18:08:14;3.50;99.90
23120;DHT22;11729;50.836;4.330;2022-12-10T18:10:40;3.50;99.90
23120;DHT22;11729;50.836;4.330;2022-12-10T18:13:06;3.50;99.90
23120;DHT22;11729;50.836;4.330;2022-12-10T18:15:31;3.50;99.90
23120;DHT22;11729;50.836;4.330;2022-12-10T18:17:58;3.50;99.90
23120;DHT22;11729;50.836;4.330;2022-12-10T18:20:26;3.60;99.90